createdAt,value
2023-03-27T00:00:16.717Z,89.38
2023-03-27T00:03:05.012Z,89.37
2023-03-27T00:05:32.969Z,89.37
2023-03-27T00:08:01.781Z,89.36
2023-03-27T00:10:29.846Z,89.40
2023-03-27T00:12:58.100Z,89.37
2023-03-27T00:15:26.582Z,89.41
2023-03-27T00:17:55.536Z,89.38
2023-03-27T00:20:24.273Z,89.36
2023-03-27T00:27:12.404Z,90.28
2023-03-27T00:29:40.300Z,90.06
2023-03-27T00:32:08.323Z,89.87
2023-03-27T00:34:36.257Z,89.53
2023-03-27T00:37:05.785Z,89.22
2023-03-27T00:39:34.289Z,89.00
2023-03-27T00:42:02.270Z,88.75
2023-03-27T00:44:34.599Z,88.68
2023-03-27T00:47:04.455Z,88.79
2023-03-27T00:49:36.251Z,88.62
2023-03-27T00:52:06.789Z,88.72
2023-03-27T00:54:40.274Z,88.65
2023-03-27T01:00:51.822Z,88.65
2023-03-27T01:03:21.532Z,88.73
2023-03-27T01:05:51.057Z,88.67
2023-03-27T01:12:54.173Z,89.01
2023-03-27T01:15:48.165Z,89.30
2023-03-27T01:18:40.575Z,89.36
2023-03-27T01:22:05.443Z,89.55
2023-03-27T01:24:56.611Z,89.83
2023-03-27T01:27:51.675Z,89.95
2023-03-27T01:30:31.917Z,90.19
2023-03-27T01:33:14.551Z,90.37
2023-03-27T01:35:52.610Z,90.94
2023-03-27T01:38:32.062Z,90.82
2023-03-27T01:41:21.839Z,91.10
2023-03-27T01:44:03.159Z,91.25
2023-03-27T01:47:03.463Z,91.76
2023-03-27T01:49:41.155Z,91.91
2023-03-27T01:52:16.048Z,91.96
2023-03-27T01:54:58.384Z,92.58
2023-03-27T01:57:31.047Z,92.92
2023-03-27T02:00:18.030Z,93.00
2023-03-27T02:03:00.905Z,93.14
2023-03-27T02:05:42.961Z,93.01
2023-03-27T02:08:17.338Z,92.57
2023-03-27T02:10:50.839Z,92.41
2023-03-27T02:13:40.855Z,92.07
2023-03-27T02:16:15.740Z,91.86
2023-03-27T02:18:50.414Z,91.88
2023-03-27T02:21:18.479Z,92.31
2023-03-27T02:24:02.196Z,92.60
2023-03-27T02:26:33.073Z,92.82
2023-03-27T02:29:32.169Z,92.83
2023-03-27T02:32:25.222Z,92.78
2023-03-27T02:35:17.279Z,92.84
2023-03-27T02:37:59.229Z,92.90
2023-03-27T02:40:39.792Z,92.97
2023-03-27T02:43:21.842Z,92.99
2023-03-27T02:46:15.315Z,92.97
2023-03-27T02:48:47.943Z,93.16
2023-03-27T02:51:23.110Z,93.33
2023-03-27T02:53:57.724Z,93.29
2023-03-27T02:56:32.673Z,93.34
2023-03-27T02:59:08.875Z,93.36
2023-03-27T03:01:39.504Z,93.29
2023-03-27T03:04:30.114Z,93.01
2023-03-27T03:06:59.182Z,93.29
2023-03-27T03:09:31.202Z,93.48
2023-03-27T03:11:59.475Z,93.78
2023-03-27T03:14:38.847Z,93.82
2023-03-27T03:17:06.788Z,93.80
2023-03-27T03:19:34.619Z,94.02
2023-03-27T03:22:02.679Z,93.89
2023-03-27T03:24:44.188Z,93.83
2023-03-27T03:27:21.222Z,93.64
2023-03-27T03:30:25.690Z,94.13
2023-03-27T03:32:55.071Z,94.19
2023-03-27T03:35:25.089Z,94.37
2023-03-27T03:37:53.163Z,94.16
2023-03-27T03:40:21.463Z,94.29
2023-03-27T03:42:52.170Z,94.41
2023-03-27T03:45:20.480Z,94.23
2023-03-27T03:47:48.429Z,94.27
2023-03-27T03:50:16.542Z,93.99
2023-03-27T03:53:01.272Z,94.12
2023-03-27T03:55:29.682Z,93.98
2023-03-27T03:57:58.195Z,94.06
2023-03-27T04:04:35.380Z,94.51
2023-03-27T04:08:44.941Z,94.59
2023-03-27T04:11:12.848Z,94.93
2023-03-27T04:13:40.722Z,95.08
2023-03-27T04:16:09.126Z,94.93
2023-03-27T04:18:40.069Z,94.85
2023-03-27T04:24:50.940Z,94.98
2023-03-27T04:27:19.055Z,95.26
2023-03-27T04:29:47.543Z,94.96
2023-03-27T04:36:36.098Z,94.67
2023-03-27T04:39:04.694Z,94.70
2023-03-27T04:41:32.736Z,94.51
2023-03-27T04:44:00.744Z,94.88
2023-03-27T04:46:28.809Z,94.53
2023-03-27T04:53:09.535Z,94.87
2023-03-27T04:56:17.367Z,95.04
2023-03-27T04:58:46.001Z,95.35
2023-03-27T05:01:13.181Z,95.16
2023-03-27T05:03:39.964Z,94.94
2023-03-27T05:06:07.934Z,94.90
2023-03-27T05:08:35.471Z,94.58
2023-03-27T05:11:02.183Z,94.34
2023-03-27T05:13:29.204Z,94.31
2023-03-27T05:15:58.777Z,94.05
2023-03-27T05:18:25.975Z,93.88
2023-03-27T05:20:52.737Z,93.75
2023-03-27T05:23:19.477Z,93.59
2023-03-27T05:25:59.279Z,93.81
2023-03-27T05:28:29.152Z,93.58
2023-03-27T05:31:22.498Z,93.24
2023-03-27T05:34:54.808Z,93.41
2023-03-27T05:37:25.860Z,93.66
2023-03-27T05:39:56.259Z,93.18
2023-03-27T05:42:24.357Z,92.65
2023-03-27T05:44:52.454Z,92.34
2023-03-27T05:47:21.043Z,91.99
2023-03-27T05:49:48.863Z,91.54
2023-03-27T05:53:10.294Z,91.33
2023-03-27T05:55:39.571Z,91.10
2023-03-27T05:58:10.241Z,91.03
2023-03-27T06:00:44.489Z,90.60
2023-03-27T06:03:14.021Z,90.08
2023-03-27T06:05:42.586Z,89.72
2023-03-27T06:08:57.906Z,89.61
2023-03-27T06:11:48.105Z,90.03
2023-03-27T06:14:20.902Z,90.43
2023-03-27T06:16:49.452Z,90.30
2023-03-27T06:19:19.279Z,89.83
2023-03-27T06:21:49.002Z,89.51
2023-03-27T06:24:17.003Z,89.30
2023-03-27T06:26:48.363Z,88.71
2023-03-27T06:29:16.547Z,88.48
2023-03-27T06:31:44.939Z,88.39
2023-03-27T06:38:33.151Z,89.00
2023-03-27T06:41:01.860Z,88.90
2023-03-27T06:47:54.888Z,87.27
2023-03-27T06:50:25.471Z,85.99
2023-03-27T06:52:53.894Z,85.08
2023-03-27T06:55:24.315Z,83.62
2023-03-27T06:57:54.442Z,82.43
2023-03-27T07:00:26.207Z,81.47
2023-03-27T07:03:08.742Z,79.84
2023-03-27T07:05:41.306Z,79.58
2023-03-27T07:08:22.371Z,79.03
2023-03-27T07:11:07.359Z,76.95
2023-03-27T07:13:41.270Z,75.45
2023-03-27T07:16:13.828Z,76.01
2023-03-27T07:18:42.180Z,75.14
2023-03-27T07:21:10.610Z,74.61
2023-03-27T07:23:38.842Z,74.48
2023-03-27T07:26:08.770Z,74.10
2023-03-27T07:28:38.643Z,73.28
2023-03-27T07:31:16.639Z,72.86
2023-03-27T07:34:00.125Z,71.97
2023-03-27T07:36:30.143Z,71.34
2023-03-27T07:38:59.442Z,69.94
2023-03-27T07:41:31.509Z,68.60
2023-03-27T07:43:59.814Z,67.24
2023-03-27T07:46:28.251Z,66.97
2023-03-27T07:48:57.021Z,65.31
2023-03-27T07:51:25.390Z,64.42
2023-03-27T07:53:58.988Z,58.76
2023-03-27T07:56:32.029Z,58.18
2023-03-27T07:59:05.007Z,57.23
2023-03-27T08:01:34.477Z,56.97
2023-03-27T08:04:05.963Z,55.97
2023-03-27T08:06:34.672Z,56.84
2023-03-27T08:09:05.968Z,57.01
2023-03-27T08:11:40.023Z,56.97
2023-03-27T08:14:09.497Z,57.12
2023-03-27T08:16:37.775Z,58.19
2023-03-27T08:19:06.859Z,58.06
2023-03-27T08:21:34.994Z,57.29
2023-03-27T08:24:04.899Z,55.95
2023-03-27T08:26:33.845Z,55.22
2023-03-27T08:29:02.021Z,53.74
2023-03-27T08:31:31.431Z,53.18
2023-03-27T08:33:59.412Z,53.48
2023-03-27T08:36:32.085Z,54.91
2023-03-27T08:39:03.115Z,55.79
2023-03-27T08:41:39.109Z,56.30
2023-03-27T08:44:13.530Z,56.66
2023-03-27T08:46:50.151Z,56.86
2023-03-27T08:49:22.536Z,56.52
2023-03-27T08:52:14.699Z,55.98
2023-03-27T08:54:46.604Z,56.13
2023-03-27T08:57:23.155Z,57.49
2023-03-27T08:59:59.956Z,57.10
2023-03-27T09:02:55.968Z,57.90
2023-03-27T09:05:30.583Z,59.59
2023-03-27T09:08:10.658Z,59.72
2023-03-27T09:11:11.494Z,59.73
2023-03-27T09:13:52.599Z,60.30
2023-03-27T09:16:32.236Z,60.23
2023-03-27T09:19:12.056Z,59.69
2023-03-27T09:21:47.027Z,60.04
2023-03-27T09:24:29.629Z,59.88
2023-03-27T09:27:07.316Z,59.43
2023-03-27T09:29:41.791Z,59.34
2023-03-27T09:32:15.764Z,58.64
2023-03-27T09:34:44.312Z,59.12
2023-03-27T09:37:14.638Z,58.61
2023-03-27T09:39:52.437Z,58.57
2023-03-27T09:42:33.407Z,59.29
2023-03-27T09:45:06.480Z,59.45
2023-03-27T09:47:40.768Z,59.17
2023-03-27T09:50:41.541Z,59.93
2023-03-27T09:53:19.245Z,58.74
2023-03-27T09:55:53.239Z,58.80
2023-03-27T09:58:23.388Z,59.72
2023-03-27T10:01:07.861Z,60.24
2023-03-27T10:03:48.689Z,60.30
2023-03-27T10:06:39.551Z,59.36
2023-03-27T10:09:23.225Z,60.05
2023-03-27T10:12:00.574Z,59.84
2023-03-27T10:14:30.049Z,59.99
2023-03-27T10:16:58.156Z,58.79
2023-03-27T10:19:35.602Z,58.56
2023-03-27T10:22:20.368Z,58.47
2023-03-27T10:24:49.831Z,57.81
2023-03-27T10:27:25.508Z,58.64
2023-03-27T10:29:53.373Z,58.03
2023-03-27T10:32:45.402Z,57.05
2023-03-27T10:35:29.027Z,57.88
2023-03-27T10:37:57.649Z,56.52
2023-03-27T10:40:30.194Z,55.23
2023-03-27T10:43:06.187Z,55.43
2023-03-27T10:45:54.635Z,55.75
2023-03-27T10:48:38.418Z,55.30
2023-03-27T10:51:28.360Z,55.75
2023-03-27T10:54:12.069Z,55.61
2023-03-27T10:57:03.633Z,54.94
2023-03-27T11:00:10.699Z,53.27
2023-03-27T11:03:09.986Z,52.77
2023-03-27T11:05:44.632Z,51.23
2023-03-27T11:09:07.102Z,52.70
2023-03-27T11:11:52.221Z,50.36
2023-03-27T11:14:43.322Z,51.08
2023-03-27T11:17:16.218Z,51.50
2023-03-27T11:19:56.887Z,49.84
2023-03-27T11:22:57.139Z,49.19
2023-03-27T11:25:54.777Z,50.53
2023-03-27T11:28:59.835Z,51.93
2023-03-27T11:32:08.766Z,51.04
2023-03-27T11:35:22.885Z,52.12
2023-03-27T11:38:25.305Z,52.53
2023-03-27T11:40:54.957Z,51.78
2023-03-27T11:43:28.218Z,50.84
2023-03-27T11:46:09.998Z,51.44
2023-03-27T11:48:49.801Z,50.94
2023-03-27T11:51:21.526Z,49.58
2023-03-27T11:54:17.118Z,45.68
2023-03-27T11:56:59.371Z,46.10
2023-03-27T11:59:43.002Z,46.29
2023-03-27T12:02:47.742Z,47.82
2023-03-27T12:05:48.785Z,48.55
2023-03-27T12:08:27.444Z,45.24
2023-03-27T12:10:58.119Z,43.37
2023-03-27T12:14:02.282Z,42.62
2023-03-27T12:24:03.290Z,43.46
2023-03-27T12:27:33.740Z,44.30
2023-03-27T12:34:39.445Z,44.78
2023-03-27T12:37:41.988Z,42.51
2023-03-27T12:44:28.058Z,40.80
2023-03-27T13:01:42.032Z,44.20
2023-03-27T13:08:38.483Z,42.52
2023-03-27T13:11:40.991Z,42.62
2023-03-27T13:14:35.290Z,41.58
2023-03-27T13:18:04.876Z,40.90
2023-03-27T13:24:40.646Z,42.30
2023-03-27T14:18:51.424Z,53.19
2023-03-27T14:50:57.004Z,60.39
2023-03-27T14:54:11.733Z,61.42
2023-03-27T15:11:41.310Z,64.83
2023-03-27T15:53:42.418Z,60.74
2023-03-27T15:56:38.330Z,60.75
2023-03-27T15:59:15.558Z,61.12
2023-03-27T16:01:54.095Z,61.39
2023-03-27T16:07:09.695Z,60.98
2023-03-27T16:20:48.647Z,61.98
2023-03-27T16:34:34.033Z,63.60
2023-03-27T16:47:41.734Z,63.91
2023-03-27T16:50:22.038Z,64.41
2023-03-27T16:52:53.050Z,64.26
2023-03-27T16:55:28.623Z,64.70
2023-03-27T16:57:57.505Z,64.96
2023-03-27T17:00:34.146Z,64.90
2023-03-27T17:03:02.376Z,65.64
2023-03-27T17:05:51.834Z,66.33
2023-03-27T17:08:21.491Z,66.84
2023-03-27T17:10:50.124Z,66.67
2023-03-27T17:13:20.738Z,66.79
2023-03-27T17:15:55.678Z,66.52
2023-03-27T17:19:55.529Z,66.46
2023-03-27T17:24:06.122Z,65.55
2023-03-27T17:28:07.242Z,65.35
2023-03-27T17:31:14.543Z,64.96
2023-03-27T17:34:30.786Z,64.72
2023-03-27T17:38:06.700Z,64.57
2023-03-27T17:41:49.320Z,64.60
2023-03-27T17:45:24.078Z,65.06
2023-03-27T17:49:06.596Z,65.60
2023-03-27T17:52:50.045Z,65.97
2023-03-27T18:07:05.544Z,64.98
2023-03-27T18:10:21.774Z,65.27
2023-03-27T18:12:55.138Z,65.02
2023-03-27T18:15:21.927Z,64.84
2023-03-27T18:17:49.834Z,64.00
2023-03-27T18:20:16.921Z,63.97
2023-03-27T18:23:46.061Z,63.43
2023-03-27T18:51:41.861Z,61.66
2023-03-27T18:54:10.241Z,61.46
2023-03-27T18:56:40.406Z,61.57
2023-03-27T18:59:11.378Z,61.56
2023-03-27T19:01:39.746Z,61.79
2023-03-27T19:04:09.777Z,61.81
2023-03-27T19:06:39.811Z,61.79
2023-03-27T19:09:10.850Z,61.77
2023-03-27T19:11:40.164Z,62.14
2023-03-27T19:14:11.563Z,62.18
2023-03-27T19:17:21.197Z,61.75
2023-03-27T19:20:02.455Z,61.20
2023-03-27T19:22:32.877Z,61.11
2023-03-27T19:25:05.155Z,61.13
2023-03-27T19:27:38.749Z,61.16
2023-03-27T19:30:12.086Z,60.62
2023-03-27T19:33:37.769Z,60.96
2023-03-27T19:36:12.097Z,61.79
2023-03-27T19:38:40.656Z,61.82
2023-03-27T19:41:12.903Z,61.81
2023-03-27T19:43:41.118Z,61.77
2023-03-27T19:48:42.020Z,62.19
2023-03-27T19:51:10.000Z,62.04
2023-03-27T19:53:42.216Z,62.18
2023-03-27T19:56:11.961Z,62.25
2023-03-27T19:58:43.727Z,62.42
2023-03-27T20:01:18.766Z,62.33
2023-03-27T20:03:50.715Z,62.52
2023-03-27T20:06:24.305Z,62.30
2023-03-27T20:08:54.093Z,62.37
2023-03-27T20:11:31.161Z,62.43
2023-03-27T20:14:03.186Z,62.61
2023-03-27T20:16:50.163Z,63.01
2023-03-27T20:19:22.792Z,62.85
2023-03-27T20:22:02.605Z,62.80
2023-03-27T20:24:30.908Z,62.99
2023-03-27T20:27:22.145Z,62.72
2023-03-27T20:29:58.402Z,62.58
2023-03-27T20:32:27.915Z,62.75
2023-03-27T20:35:24.709Z,63.19
2023-03-27T20:37:59.273Z,63.47
2023-03-27T20:40:32.860Z,63.72
2023-03-27T20:43:06.375Z,63.19
2023-03-27T20:45:34.472Z,63.16
2023-03-27T20:48:06.951Z,62.46
2023-03-27T20:50:36.971Z,62.23
2023-03-27T20:53:09.993Z,62.37
2023-03-27T20:55:49.595Z,62.30
2023-03-27T20:58:28.829Z,62.36
2023-03-27T21:01:38.028Z,62.18
2023-03-27T21:04:07.196Z,62.92
2023-03-27T21:06:36.717Z,63.03
2023-03-27T21:16:42.476Z,63.92
2023-03-27T21:19:14.332Z,64.08
2023-03-27T21:21:42.247Z,64.16
2023-03-27T21:24:10.619Z,63.69
2023-03-27T21:26:39.324Z,63.16
2023-03-27T21:29:15.482Z,63.46
2023-03-27T21:31:43.695Z,63.83
2023-03-27T21:34:35.432Z,63.83
2023-03-27T21:37:03.532Z,64.34
2023-03-27T21:39:32.035Z,64.06
2023-03-27T21:42:04.531Z,63.78
2023-03-27T21:44:33.598Z,64.18
2023-03-27T21:56:50.278Z,65.29
2023-03-27T21:59:18.766Z,65.57
2023-03-27T22:01:50.875Z,65.44
2023-03-27T22:04:21.693Z,65.17
2023-03-27T22:06:52.326Z,64.87
2023-03-27T22:09:20.390Z,64.64
2023-03-27T22:11:48.402Z,64.74
2023-03-27T22:14:19.562Z,64.64
2023-03-27T22:16:48.499Z,64.61
2023-03-27T22:19:17.238Z,64.83
2023-03-27T22:21:47.798Z,65.12
2023-03-27T22:24:16.165Z,65.20
2023-03-27T22:26:44.345Z,65.40
2023-03-27T22:29:12.923Z,65.27
2023-03-27T22:31:40.994Z,64.99
2023-03-27T22:34:10.169Z,65.18
2023-03-27T22:36:41.601Z,64.97
2023-03-27T22:39:09.610Z,64.96
2023-03-27T22:41:37.761Z,64.90
2023-03-27T22:44:08.645Z,64.74
2023-03-27T22:46:58.930Z,65.13
2023-03-27T22:49:27.323Z,64.95
2023-03-27T22:51:56.432Z,64.87
2023-03-27T22:54:24.672Z,65.12
2023-03-27T22:56:55.529Z,65.35
2023-03-27T22:59:24.108Z,65.22
2023-03-27T23:06:06.751Z,66.13
2023-03-27T23:08:37.018Z,66.39
2023-03-27T23:11:08.085Z,66.39
2023-03-27T23:13:41.459Z,65.99
2023-03-27T23:16:11.026Z,66.44
2023-03-27T23:18:39.789Z,66.42
2023-03-27T23:21:11.052Z,66.72
2023-03-27T23:23:40.798Z,66.90
2023-03-27T23:26:10.396Z,67.12
2023-03-27T23:28:41.759Z,67.30
2023-03-27T23:31:15.743Z,67.42
2023-03-27T23:34:35.644Z,67.92
2023-03-27T23:37:08.070Z,68.01
2023-03-27T23:39:36.106Z,68.42
2023-03-27T23:42:04.105Z,68.25
2023-03-27T23:44:32.211Z,68.22
2023-03-27T23:47:00.434Z,68.05
2023-03-27T23:49:29.257Z,68.25
2023-03-27T23:51:57.414Z,68.38
2023-03-27T23:54:25.507Z,68.29
2023-03-27T23:56:54.491Z,68.36
2023-03-27T23:59:22.537Z,68.67
